sensor_id;sensor_type;location;lat;lon;timestamp;pressure;altitude;pressure_sealevel;temperature;humidity
74680;BME280;63211;48.548;2.704;2022-10-29T00:00:56;101248.66;;;19.87;72.42
74680;BME280;63211;48.548;2.704;2022-10-29T00:03:23;101235.66;;;19.82;72.23
74680;BME280;63211;48.548;2.704;2022-10-29T00:05:59;101246.56;;;19.89;72.30
74680;BME280;63211;48.548;2.704;2022-10-29T00:08:28;101235.88;;;19.81;72.43
74680;BME280;63211;48.548;2.704;2022-10-29T00:10:55;101247.59;;;19.88;72.02
74680;BME280;63211;48.548;2.704;2022-10-29T00:13:21;101251.78;;;19.90;72.20
74680;BME280;63211;48.548;2.704;2022-10-29T00:15:48;101254.75;;;19.89;72.03
74680;BME280;63211;48.548;2.704;2022-10-29T00:18:14;101256.63;;;19.88;72.02
74680;BME280;63211;48.548;2.704;2022-10-29T00:20:41;101249.31;;;19.82;72.06
74680;BME280;63211;48.548;2.704;2022-10-29T00:23:09;101248.66;;;19.87;72.30
74680;BME280;63211;48.548;2.704;2022-10-29T00:25:36;101245.94;;;19.87;72.21
74680;BME280;63211;48.548;2.704;2022-10-29T00:28:02;101247.00;;;19.86;72.02
74680;BME280;63211;48.548;2.704;2022-10-29T00:30:29;101244.69;;;19.83;72.33
74680;BME280;63211;48.548;2.704;2022-10-29T00:32:55;101239.63;;;19.86;72.28
74680;BME280;63211;48.548;2.704;2022-10-29T00:35:22;101237.13;;;19.85;72.35
74680;BME280;63211;48.548;2.704;2022-10-29T00:37:50;101232.72;;;19.84;72.01
74680;BME280;63211;48.548;2.704;2022-10-29T00:40:18;101216.31;;;19.84;72.28
74680;BME280;63211;48.548;2.704;2022-10-29T00:42:45;101216.31;;;19.84;72.32
74680;BME280;63211;48.548;2.704;2022-10-29T00:45:17;101230.81;;;19.84;72.01
74680;BME280;63211;48.548;2.704;2022-10-29T00:47:48;101208.78;;;19.79;72.23
74680;BME280;63211;48.548;2.704;2022-10-29T00:50:17;101213.56;;;19.84;72.05
74680;BME280;63211;48.548;2.704;2022-10-29T00:52:48;101213.56;;;19.84;72.24
74680;BME280;63211;48.548;2.704;2022-10-29T00:55:18;101209.16;;;19.83;72.34
74680;BME280;63211;48.548;2.704;2022-10-29T00:57:48;101189.25;;;19.76;72.16
74680;BME280;63211;48.548;2.704;2022-10-29T01:00:16;101200.34;;;19.81;72.11
74680;BME280;63211;48.548;2.704;2022-10-29T01:02:43;101174.41;;;19.72;72.38
74680;BME280;63211;48.548;2.704;2022-10-29T01:05:12;101190.50;;;19.80;72.02
74680;BME280;63211;48.548;2.704;2022-10-29T01:07:41;101193.22;;;19.80;71.93
74680;BME280;63211;48.548;2.704;2022-10-29T01:10:09;101177.88;;;19.79;72.11
74680;BME280;63211;48.548;2.704;2022-10-29T01:13:03;101173.25;;;19.79;72.02
74680;BME280;63211;48.548;2.704;2022-10-29T01:15:37;101170.38;;;19.74;72.25
74680;BME280;63211;48.548;2.704;2022-10-29T01:18:12;101167.78;;;19.79;72.15
74680;BME280;63211;48.548;2.704;2022-10-29T01:21:25;101168.63;;;19.80;72.11
74680;BME280;63211;48.548;2.704;2022-10-29T01:24:25;101163.59;;;19.77;72.13
74680;BME280;63211;48.548;2.704;2022-10-29T01:30:02;101158.97;;;19.77;72.34
74680;BME280;63211;48.548;2.704;2022-10-29T01:32:38;101129.97;;;19.76;72.14
74680;BME280;63211;48.548;2.704;2022-10-29T01:35:14;101144.03;;;19.80;71.85
74680;BME280;63211;48.548;2.704;2022-10-29T01:37:49;101137.97;;;19.78;71.93
74680;BME280;63211;48.548;2.704;2022-10-29T01:40:23;101134.94;;;19.86;71.80
74680;BME280;63211;48.548;2.704;2022-10-29T01:42:55;101125.03;;;19.92;71.72
74680;BME280;63211;48.548;2.704;2022-10-29T01:45:27;101125.53;;;19.82;71.59
74680;BME280;63211;48.548;2.704;2022-10-29T01:47:56;101128.47;;;19.80;72.03
74680;BME280;63211;48.548;2.704;2022-10-29T01:50:25;101099.66;;;19.60;72.20
74680;BME280;63211;48.548;2.704;2022-10-29T01:52:53;101133.34;;;19.78;72.23
74680;BME280;63211;48.548;2.704;2022-10-29T01:55:26;101115.78;;;19.68;72.34
74680;BME280;63211;48.548;2.704;2022-10-29T01:57:55;101105.69;;;19.68;72.26
74680;BME280;63211;48.548;2.704;2022-10-29T02:00:21;101117.38;;;19.75;72.18
74680;BME280;63211;48.548;2.704;2022-10-29T02:03:00;101111.91;;;19.75;72.16
74680;BME280;63211;48.548;2.704;2022-10-29T02:05:36;101106.44;;;19.75;71.93
74680;BME280;63211;48.548;2.704;2022-10-29T02:08:15;101105.41;;;19.76;72.04
74680;BME280;63211;48.548;2.704;2022-10-29T02:10:48;101100.63;;;19.72;72.06
74680;BME280;63211;48.548;2.704;2022-10-29T02:13:20;101091.16;;;19.74;72.20
74680;BME280;63211;48.548;2.704;2022-10-29T02:15:51;101094.69;;;19.75;72.26
74680;BME280;63211;48.548;2.704;2022-10-29T02:18:21;101085.91;;;19.73;72.11
74680;BME280;63211;48.548;2.704;2022-10-29T02:20:48;101097.69;;;19.73;72.30
74680;BME280;63211;48.548;2.704;2022-10-29T02:23:15;101089.47;;;19.73;72.17
74680;BME280;63211;48.548;2.704;2022-10-29T02:25:41;101082.13;;;19.74;72.47
74680;BME280;63211;48.548;2.704;2022-10-29T02:28:08;101073.31;;;19.72;72.20
74680;BME280;63211;48.548;2.704;2022-10-29T02:30:35;101073.31;;;19.72;72.23
74680;BME280;63211;48.548;2.704;2022-10-29T02:33:01;101073.31;;;19.72;72.28
74680;BME280;63211;48.548;2.704;2022-10-29T02:35:29;101060.72;;;19.71;72.32
74680;BME280;63211;48.548;2.704;2022-10-29T02:37:56;101055.25;;;19.71;72.39
74680;BME280;63211;48.548;2.704;2022-10-29T02:40:22;101049.78;;;19.71;72.27
74680;BME280;63211;48.548;2.704;2022-10-29T02:42:49;101037.19;;;19.70;72.22
74680;BME280;63211;48.548;2.704;2022-10-29T02:45:16;101038.84;;;19.71;72.30
74680;BME280;63211;48.548;2.704;2022-10-29T02:47:42;101034.44;;;19.70;72.12
74680;BME280;63211;48.548;2.704;2022-10-29T02:50:09;101033.84;;;19.68;71.97
74680;BME280;63211;48.548;2.704;2022-10-29T02:52:37;101031.72;;;19.70;71.99
74680;BME280;63211;48.548;2.704;2022-10-29T02:55:04;101028.38;;;19.68;72.13
74680;BME280;63211;48.548;2.704;2022-10-29T02:57:31;101032.16;;;19.67;71.69
74680;BME280;63211;48.548;2.704;2022-10-29T02:59:57;101030.88;;;19.69;71.93
74680;BME280;63211;48.548;2.704;2022-10-29T03:02:24;101022.91;;;19.68;71.89
74680;BME280;63211;48.548;2.704;2022-10-29T03:04:50;101020.41;;;19.66;72.04
74680;BME280;63211;48.548;2.704;2022-10-29T03:07:17;101027.53;;;19.67;71.99
74680;BME280;63211;48.548;2.704;2022-10-29T03:09:45;101025.66;;;19.68;71.91
74680;BME280;63211;48.548;2.704;2022-10-29T03:12:12;101033.84;;;19.68;71.76
74680;BME280;63211;48.548;2.704;2022-10-29T03:14:38;101026.72;;;19.67;72.13
74680;BME280;63211;48.548;2.704;2022-10-29T03:17:05;101036.56;;;19.68;72.06
74680;BME280;63211;48.548;2.704;2022-10-29T03:19:31;101027.75;;;19.66;72.04
74680;BME280;63211;48.548;2.704;2022-10-29T03:21:58;101035.75;;;19.67;72.02
74680;BME280;63211;48.548;2.704;2022-10-29T03:24:24;101035.13;;;19.65;72.29
74680;BME280;63211;48.548;2.704;2022-10-29T03:26:52;101030.50;;;19.66;72.13
74680;BME280;63211;48.548;2.704;2022-10-29T03:29:19;101032.38;;;19.65;72.02
74680;BME280;63211;48.548;2.704;2022-10-29T03:31:46;101028.81;;;19.65;72.09
74680;BME280;63211;48.548;2.704;2022-10-29T03:34:12;101028.81;;;19.65;72.03
74680;BME280;63211;48.548;2.704;2022-10-29T03:36:39;101028.22;;;19.63;72.05
74680;BME280;63211;48.548;2.704;2022-10-29T03:39:05;101021.53;;;19.59;72.10
74680;BME280;63211;48.548;2.704;2022-10-29T03:41:32;101029.88;;;19.64;71.94
74680;BME280;63211;48.548;2.704;2022-10-29T03:44:00;101026.31;;;19.63;71.97
74680;BME280;63211;48.548;2.704;2022-10-29T03:46:26;101026.31;;;19.63;72.13
74680;BME280;63211;48.548;2.704;2022-10-29T03:48:53;101027.16;;;19.64;71.94
74680;BME280;63211;48.548;2.704;2022-10-29T03:51:19;101028.81;;;19.65;71.85
74680;BME280;63211;48.548;2.704;2022-10-29T03:53:46;101020.84;;;19.63;71.71
74680;BME280;63211;48.548;2.704;2022-10-29T03:56:13;101027.16;;;19.64;71.95
74680;BME280;63211;48.548;2.704;2022-10-29T03:58:39;101021.69;;;19.64;71.81
74680;BME280;63211;48.548;2.704;2022-10-29T04:01:08;101011.66;;;19.58;71.85
74680;BME280;63211;48.548;2.704;2022-10-29T04:03:37;101026.53;;;19.62;71.90
74680;BME280;63211;48.548;2.704;2022-10-29T04:06:07;101030.94;;;19.63;71.89
74680;BME280;63211;48.548;2.704;2022-10-29T04:08:34;101032.63;;;19.64;71.88
74680;BME280;63211;48.548;2.704;2022-10-29T04:11:01;101027.16;;;19.64;71.88
74680;BME280;63211;48.548;2.704;2022-10-29T04:13:28;101024.66;;;19.62;71.71
74680;BME280;63211;48.548;2.704;2022-10-29T04:15:55;101022.13;;;19.61;72.09
74680;BME280;63211;48.548;2.704;2022-10-29T04:18:23;101026.53;;;19.62;71.78
74680;BME280;63211;48.548;2.704;2022-10-29T04:20:50;101022.97;;;19.61;71.95
74680;BME280;63211;48.548;2.704;2022-10-29T04:23:18;101002.19;;;19.60;71.90
74680;BME280;63211;48.548;2.704;2022-10-29T04:25:53;100998.63;;;19.60;71.82
74680;BME280;63211;48.548;2.704;2022-10-29T04:28:20;100996.56;;;19.55;71.60
74680;BME280;63211;48.548;2.704;2022-10-29T04:30:46;101008.72;;;19.59;71.75
74680;BME280;63211;48.548;2.704;2022-10-29T04:33:13;101001.19;;;19.54;71.62
74680;BME280;63211;48.548;2.704;2022-10-29T04:35:41;101000.72;;;19.58;71.71
74680;BME280;63211;48.548;2.704;2022-10-29T04:38:08;100986.03;;;19.59;71.71
74680;BME280;63211;48.548;2.704;2022-10-29T04:40:35;100975.09;;;19.59;71.58
74680;BME280;63211;48.548;2.704;2022-10-29T04:43:02;100976.16;;;19.58;71.68
74680;BME280;63211;48.548;2.704;2022-10-29T04:45:29;100985.19;;;19.58;71.81
74680;BME280;63211;48.548;2.704;2022-10-29T04:47:58;100946.16;;;19.33;71.67
74680;BME280;63211;48.548;2.704;2022-10-29T04:50:25;100989.81;;;19.58;71.50
74680;BME280;63211;48.548;2.704;2022-10-29T04:52:56;100995.28;;;19.58;71.45
74680;BME280;63211;48.548;2.704;2022-10-29T04:55:23;100994.22;;;19.59;71.54
74680;BME280;63211;48.548;2.704;2022-10-29T04:57:50;100989.81;;;19.58;71.78
74680;BME280;63211;48.548;2.704;2022-10-29T05:00:17;100973.41;;;19.58;71.90
74680;BME280;63211;48.548;2.704;2022-10-29T05:02:46;100964.41;;;19.57;71.91
74680;BME280;63211;48.548;2.704;2022-10-29T05:05:14;100959.16;;;19.55;71.78
74680;BME280;63211;48.548;2.704;2022-10-29T05:07:40;100958.31;;;19.55;71.78
74680;BME280;63211;48.548;2.704;2022-10-29T05:10:09;100953.69;;;19.55;71.65
74680;BME280;63211;48.548;2.704;2022-10-29T05:12:35;100939.47;;;19.53;71.90
74680;BME280;63211;48.548;2.704;2022-10-29T05:15:02;100937.19;;;19.50;71.99
74680;BME280;63211;48.548;2.704;2022-10-29T05:17:29;100942.78;;;19.55;71.68
74680;BME280;63211;48.548;2.704;2022-10-29T05:19:55;100920.16;;;19.48;71.81
74680;BME280;63211;48.548;2.704;2022-10-29T05:22:22;100924.72;;;19.54;71.75
74680;BME280;63211;48.548;2.704;2022-10-29T05:24:48;100917.63;;;19.53;71.66
74680;BME280;63211;48.548;2.704;2022-10-29T05:27:16;100917.63;;;19.53;71.78
74680;BME280;63211;48.548;2.704;2022-10-29T05:29:43;100920.34;;;19.53;71.56
74680;BME280;63211;48.548;2.704;2022-10-29T05:32:10;100910.22;;;19.54;71.62
74680;BME280;63211;48.548;2.704;2022-10-29T05:34:36;100900.38;;;19.53;71.71
74680;BME280;63211;48.548;2.704;2022-10-29T05:37:03;100892.00;;;19.48;71.75
74680;BME280;63211;48.548;2.704;2022-10-29T05:39:29;100911.53;;;19.51;71.62
74680;BME280;63211;48.548;2.704;2022-10-29T05:41:56;100905.03;;;19.52;71.43
74680;BME280;63211;48.548;2.704;2022-10-29T05:44:24;100891.19;;;19.47;71.65
74680;BME280;63211;48.548;2.704;2022-10-29T05:46:50;100909.41;;;19.53;71.50
74680;BME280;63211;48.548;2.704;2022-10-29T05:49:17;100901.22;;;19.53;71.72
74680;BME280;63211;48.548;2.704;2022-10-29T05:51:43;100894.09;;;19.52;71.52
74680;BME280;63211;48.548;2.704;2022-10-29T05:54:10;100902.28;;;19.52;71.82
74680;BME280;63211;48.548;2.704;2022-10-29T05:56:37;100905.03;;;19.52;71.99
74680;BME280;63211;48.548;2.704;2022-10-29T05:59:03;100897.06;;;19.51;71.85
74680;BME280;63211;48.548;2.704;2022-10-29T06:01:31;100895.38;;;19.50;72.03
74680;BME280;63211;48.548;2.704;2022-10-29T06:03:58;100896.22;;;19.50;71.73
74680;BME280;63211;48.548;2.704;2022-10-29T06:06:25;100895.38;;;19.50;71.92
74680;BME280;63211;48.548;2.704;2022-10-29T06:08:52;100889.06;;;19.49;71.74
74680;BME280;63211;48.548;2.704;2022-10-29T06:11:18;100891.78;;;19.49;71.79
74680;BME280;63211;48.548;2.704;2022-10-29T06:13:45;100898.94;;;19.50;71.87
74680;BME280;63211;48.548;2.704;2022-10-29T06:16:11;100897.06;;;19.51;71.85
74680;BME280;63211;48.548;2.704;2022-10-29T06:18:39;100896.41;;;19.49;71.54
74680;BME280;63211;48.548;2.704;2022-10-29T06:21:06;100891.78;;;19.49;71.38
74680;BME280;63211;48.548;2.704;2022-10-29T06:23:33;100889.06;;;19.49;71.79
74680;BME280;63211;48.548;2.704;2022-10-29T06:26:00;100873.19;;;19.40;71.36
74680;BME280;63211;48.548;2.704;2022-10-29T06:28:27;100884.47;;;19.50;71.55
74680;BME280;63211;48.548;2.704;2022-10-29T06:30:54;100880.88;;;19.49;71.58
74680;BME280;63211;48.548;2.704;2022-10-29T06:33:21;100892.66;;;19.50;71.65
74680;BME280;63211;48.548;2.704;2022-10-29T06:35:49;100891.78;;;19.49;71.71
74680;BME280;63211;48.548;2.704;2022-10-29T06:38:16;100895.38;;;19.50;71.61
74680;BME280;63211;48.548;2.704;2022-10-29T06:40:42;100885.09;;;19.45;71.56
74680;BME280;63211;48.548;2.704;2022-10-29T06:43:16;100897.06;;;19.51;71.66
74680;BME280;63211;48.548;2.704;2022-10-29T06:45:42;100911.78;;;19.50;71.61
74680;BME280;63211;48.548;2.704;2022-10-29T06:48:09;100907.56;;;19.47;71.82
74680;BME280;63211;48.548;2.704;2022-10-29T06:50:35;100912.19;;;19.47;71.72
74680;BME280;63211;48.548;2.704;2022-10-29T06:53:05;100900.19;;;19.48;71.97
74680;BME280;63211;48.548;2.704;2022-10-29T06:55:33;100907.56;;;19.47;71.75
74680;BME280;63211;48.548;2.704;2022-10-29T06:58:02;100904.81;;;19.47;71.59
74680;BME280;63211;48.548;2.704;2022-10-29T07:00:29;100892.47;;;19.45;71.55
74680;BME280;63211;48.548;2.704;2022-10-29T07:02:56;100901.72;;;19.44;71.40
74680;BME280;63211;48.548;2.704;2022-10-29T07:05:23;100903.84;;;19.42;71.55
74680;BME280;63211;48.548;2.704;2022-10-29T07:07:53;100909.69;;;19.45;71.57
74680;BME280;63211;48.548;2.704;2022-10-29T07:10:21;100901.50;;;19.45;71.53
74680;BME280;63211;48.548;2.704;2022-10-29T07:12:48;100914.31;;;19.45;71.31
74680;BME280;63211;48.548;2.704;2022-10-29T07:15:15;100911.34;;;19.46;71.36
74680;BME280;63211;48.548;2.704;2022-10-29T07:17:41;100917.03;;;19.45;71.29
74680;BME280;63211;48.548;2.704;2022-10-29T07:20:09;100912.19;;;19.47;71.54
74680;BME280;63211;48.548;2.704;2022-10-29T07:22:36;100920.38;;;19.47;71.40
74680;BME280;63211;48.548;2.704;2022-10-29T07:25:03;100914.03;;;19.53;71.81
74680;BME280;63211;48.548;2.704;2022-10-29T07:27:31;100917.41;;;19.48;71.69
74680;BME280;63211;48.548;2.704;2022-10-29T07:29:57;100917.03;;;19.45;71.87
74680;BME280;63211;48.548;2.704;2022-10-29T07:32:24;100925.94;;;19.59;70.82
74680;BME280;63211;48.548;2.704;2022-10-29T07:34:50;100949.00;;;19.63;71.25
74680;BME280;63211;48.548;2.704;2022-10-29T07:37:17;100947.78;;;19.59;70.78
74680;BME280;63211;48.548;2.704;2022-10-29T07:39:44;100947.34;;;19.62;70.85
74680;BME280;63211;48.548;2.704;2022-10-29T07:42:10;100949.91;;;19.75;70.40
74680;BME280;63211;48.548;2.704;2022-10-29T07:44:38;100952.31;;;19.83;69.71
74680;BME280;63211;48.548;2.704;2022-10-29T07:47:05;100959.41;;;19.90;69.53
74680;BME280;63211;48.548;2.704;2022-10-29T07:49:31;100985.19;;;19.95;69.19
74680;BME280;63211;48.548;2.704;2022-10-29T07:51:58;100983.31;;;19.95;69.24
74680;BME280;63211;48.548;2.704;2022-10-29T07:54:25;100982.53;;;20.06;68.75
74680;BME280;63211;48.548;2.704;2022-10-29T07:56:51;100977.31;;;19.86;68.93
74680;BME280;63211;48.548;2.704;2022-10-29T07:59:18;100978.97;;;19.87;69.16
74680;BME280;63211;48.548;2.704;2022-10-29T08:01:46;100969.09;;;20.05;69.18
74680;BME280;63211;48.548;2.704;2022-10-29T08:04:13;100972.81;;;20.10;69.19
74680;BME280;63211;48.548;2.704;2022-10-29T08:06:39;100983.28;;;20.13;69.03
74680;BME280;63211;48.548;2.704;2022-10-29T08:09:06;100979.25;;;20.16;68.51
74680;BME280;63211;48.548;2.704;2022-10-29T08:11:33;100980.66;;;20.18;68.44
74680;BME280;63211;48.548;2.704;2022-10-29T08:14:00;100971.63;;;20.18;68.37
74680;BME280;63211;48.548;2.704;2022-10-29T08:16:26;100967.63;;;20.02;68.24
74680;BME280;63211;48.548;2.704;2022-10-29T08:18:54;100971.66;;;20.00;68.33
74680;BME280;63211;48.548;2.704;2022-10-29T08:21:21;100956.56;;;19.97;68.16
74680;BME280;63211;48.548;2.704;2022-10-29T08:23:48;100953.69;;;19.92;68.05
74680;BME280;63211;48.548;2.704;2022-10-29T08:26:15;100946.41;;;19.86;67.87
74680;BME280;63211;48.548;2.704;2022-10-29T08:28:41;100969.03;;;19.93;68.16
74680;BME280;63211;48.548;2.704;2022-10-29T08:31:08;100972.44;;;19.88;67.83
74680;BME280;63211;48.548;2.704;2022-10-29T08:33:35;100985.88;;;19.90;67.70
74680;BME280;63211;48.548;2.704;2022-10-29T08:36:03;100974.50;;;19.93;67.64
74680;BME280;63211;48.548;2.704;2022-10-29T08:38:30;100974.63;;;19.98;67.48
74680;BME280;63211;48.548;2.704;2022-10-29T08:41:11;100966.50;;;20.10;66.90
74680;BME280;63211;48.548;2.704;2022-10-29T08:43:57;100961.19;;;20.15;66.86
74680;BME280;63211;48.548;2.704;2022-10-29T08:46:37;100968.06;;;20.17;66.41
74680;BME280;63211;48.548;2.704;2022-10-29T08:49:10;100960.47;;;20.19;66.36
74680;BME280;63211;48.548;2.704;2022-10-29T08:51:43;100956.56;;;20.15;66.41
74680;BME280;63211;48.548;2.704;2022-10-29T08:54:13;100949.53;;;20.19;66.29
74680;BME280;63211;48.548;2.704;2022-10-29T08:56:46;100948.34;;;20.15;66.42
74680;BME280;63211;48.548;2.704;2022-10-29T08:59:16;100953.69;;;20.22;66.00
74680;BME280;63211;48.548;2.704;2022-10-29T09:01:43;100945.97;;;20.19;65.69
74680;BME280;63211;48.548;2.704;2022-10-29T09:04:21;100958.34;;;20.21;66.35
74680;BME280;63211;48.548;2.704;2022-10-29T09:06:59;100948.22;;;20.22;66.46
74680;BME280;63211;48.548;2.704;2022-10-29T09:09:30;100956.22;;;20.23;66.06
74680;BME280;63211;48.548;2.704;2022-10-29T09:12:24;100962.06;;;20.27;66.22
74680;BME280;63211;48.548;2.704;2022-10-29T09:15:24;100959.31;;;20.27;65.90
74680;BME280;63211;48.548;2.704;2022-10-29T09:18:04;100951.81;;;20.22;66.48
74680;BME280;63211;48.548;2.704;2022-10-29T09:20:41;100948.97;;;20.29;66.09
74680;BME280;63211;48.548;2.704;2022-10-29T09:23:22;100949.44;;;20.26;66.06
74680;BME280;63211;48.548;2.704;2022-10-29T09:25:54;100951.13;;;20.27;66.25
74680;BME280;63211;48.548;2.704;2022-10-29T09:28:32;100951.34;;;20.25;66.31
74680;BME280;63211;48.548;2.704;2022-10-29T09:31:10;100945.41;;;20.29;66.28
74680;BME280;63211;48.548;2.704;2022-10-29T09:33:44;100948.16;;;20.29;66.76
74680;BME280;63211;48.548;2.704;2022-10-29T09:36:14;100939.72;;;20.30;66.61
74680;BME280;63211;48.548;2.704;2022-10-29T09:38:50;100941.38;;;20.31;66.42
74680;BME280;63211;48.548;2.704;2022-10-29T09:41:21;100951.50;;;20.31;66.16
74680;BME280;63211;48.548;2.704;2022-10-29T09:43:51;100957.34;;;20.34;66.26
74680;BME280;63211;48.548;2.704;2022-10-29T09:46:26;100917.28;;;20.10;66.12
74680;BME280;63211;48.548;2.704;2022-10-29T09:49:02;100948.59;;;20.25;66.18
74680;BME280;63211;48.548;2.704;2022-10-29T09:51:41;100953.84;;;20.27;66.41
74680;BME280;63211;48.548;2.704;2022-10-29T09:54:12;100957.56;;;20.33;65.87
74680;BME280;63211;48.548;2.704;2022-10-29T09:56:40;100966.13;;;20.36;66.53
74680;BME280;63211;48.548;2.704;2022-10-29T09:59:11;100939.44;;;20.20;66.13
74680;BME280;63211;48.548;2.704;2022-10-29T10:01:43;100952.47;;;20.36;66.11
74680;BME280;63211;48.548;2.704;2022-10-29T10:04:16;100955.34;;;20.41;66.33
74680;BME280;63211;48.548;2.704;2022-10-29T10:07:04;100947.97;;;20.42;66.37
74680;BME280;63211;48.548;2.704;2022-10-29T10:09:50;100951.78;;;20.41;66.57
74680;BME280;63211;48.548;2.704;2022-10-29T10:12:18;100947.38;;;20.40;66.50
74680;BME280;63211;48.548;2.704;2022-10-29T10:14:45;100944.19;;;20.43;66.47
74680;BME280;63211;48.548;2.704;2022-10-29T10:17:12;100939.53;;;20.43;66.55
74680;BME280;63211;48.548;2.704;2022-10-29T10:19:42;100938.94;;;20.41;66.32
74680;BME280;63211;48.548;2.704;2022-10-29T10:22:17;100944.91;;;20.50;66.38
74680;BME280;63211;48.548;2.704;2022-10-29T10:24:44;100948.94;;;20.47;66.45
74680;BME280;63211;48.548;2.704;2022-10-29T10:27:28;100940.50;;;20.49;66.45
74680;BME280;63211;48.548;2.704;2022-10-29T10:30:11;100941.72;;;20.53;66.23
74680;BME280;63211;48.548;2.704;2022-10-29T10:32:39;100939.81;;;20.53;66.40
74680;BME280;63211;48.548;2.704;2022-10-29T10:35:27;100938.16;;;20.52;66.28
74680;BME280;63211;48.548;2.704;2022-10-29T10:37:54;100939.81;;;20.53;66.39
74680;BME280;63211;48.548;2.704;2022-10-29T10:40:23;100937.09;;;20.53;66.55
74680;BME280;63211;48.548;2.704;2022-10-29T10:42:53;100928.88;;;20.53;66.38
74680;BME280;63211;48.548;2.704;2022-10-29T10:45:25;100930.41;;;20.49;66.49
74680;BME280;63211;48.548;2.704;2022-10-29T10:47:56;100926.59;;;20.50;66.44
74680;BME280;63211;48.548;2.704;2022-10-29T10:50:27;100927.91;;;20.48;66.73
74680;BME280;63211;48.548;2.704;2022-10-29T10:52:54;100922.81;;;20.51;66.59
74680;BME280;63211;48.548;2.704;2022-10-29T10:55:25;100921.75;;;20.52;66.59
74680;BME280;63211;48.548;2.704;2022-10-29T10:58:00;100925.91;;;20.55;66.30
74680;BME280;63211;48.548;2.704;2022-10-29T11:00:30;100917.09;;;20.53;66.66
74680;BME280;63211;48.548;2.704;2022-10-29T11:03:03;100915.44;;;20.52;66.43
74680;BME280;63211;48.548;2.704;2022-10-29T11:05:39;100903.66;;;20.51;66.08
74680;BME280;63211;48.548;2.704;2022-10-29T11:08:11;100904.25;;;20.53;66.22
74680;BME280;63211;48.548;2.704;2022-10-29T11:10:44;100910.66;;;20.59;65.78
74680;BME280;63211;48.548;2.704;2022-10-29T11:13:15;100916.97;;;20.59;65.60
74680;BME280;63211;48.548;2.704;2022-10-29T11:15:49;100917.72;;;20.67;65.88
74680;BME280;63211;48.548;2.704;2022-10-29T11:18:21;100924.03;;;20.79;66.50
74680;BME280;63211;48.548;2.704;2022-10-29T11:20:54;100912.38;;;20.83;65.28
74680;BME280;63211;48.548;2.704;2022-10-29T11:23:32;100908.44;;;20.79;65.25
74680;BME280;63211;48.548;2.704;2022-10-29T11:26:05;100914.19;;;20.89;65.25
74680;BME280;63211;48.548;2.704;2022-10-29T11:28:37;100917.47;;;20.80;65.57
74680;BME280;63211;48.548;2.704;2022-10-29T11:31:13;100912.75;;;20.75;65.96
74680;BME280;63211;48.548;2.704;2022-10-29T11:33:47;100891.69;;;20.87;64.96
74680;BME280;63211;48.548;2.704;2022-10-29T11:36:18;100914.88;;;20.85;65.18
74680;BME280;63211;48.548;2.704;2022-10-29T11:38:50;100899.31;;;20.97;64.57
74680;BME280;63211;48.548;2.704;2022-10-29T11:41:24;100900.50;;;20.89;64.81
74680;BME280;63211;48.548;2.704;2022-10-29T11:43:53;100900.13;;;20.86;65.18
74680;BME280;63211;48.548;2.704;2022-10-29T11:46:27;100891.56;;;20.82;65.07
74680;BME280;63211;48.548;2.704;2022-10-29T11:49:03;100880.50;;;20.77;65.17
74680;BME280;63211;48.548;2.704;2022-10-29T11:51:36;100886.53;;;20.79;65.21
74680;BME280;63211;48.548;2.704;2022-10-29T11:54:14;100881.66;;;20.81;64.69
74680;BME280;63211;48.548;2.704;2022-10-29T11:56:51;100885.75;;;20.90;65.05
74680;BME280;63211;48.548;2.704;2022-10-29T11:59:33;100883.34;;;20.82;64.94
74680;BME280;63211;48.548;2.704;2022-10-29T12:02:17;100885.72;;;20.79;64.72
74680;BME280;63211;48.548;2.704;2022-10-29T12:04:55;100882.97;;;20.79;64.99
74680;BME280;63211;48.548;2.704;2022-10-29T12:07:32;100877.78;;;20.77;64.92
74680;BME280;63211;48.548;2.704;2022-10-29T12:10:14;100882.75;;;20.80;65.08
74680;BME280;63211;48.548;2.704;2022-10-29T12:12:50;100882.97;;;20.79;64.60
74680;BME280;63211;48.548;2.704;2022-10-29T12:15:23;100896.31;;;20.75;65.19
74680;BME280;63211;48.548;2.704;2022-10-29T12:17:58;100877.78;;;20.77;65.08
74680;BME280;63211;48.548;2.704;2022-10-29T12:20:33;100881.06;;;20.79;65.06
74680;BME280;63211;48.548;2.704;2022-10-29T12:23:07;100890.84;;;20.75;64.82
74680;BME280;63211;48.548;2.704;2022-10-29T12:25:44;100877.63;;;20.72;65.26
74680;BME280;63211;48.548;2.704;2022-10-29T12:28:15;100881.44;;;20.71;65.08
74680;BME280;63211;48.548;2.704;2022-10-29T12:30:53;100873.84;;;20.73;65.32
74680;BME280;63211;48.548;2.704;2022-10-29T12:33:29;100879.19;;;20.68;65.43
74680;BME280;63211;48.548;2.704;2022-10-29T12:36:07;100867.53;;;20.73;65.46
74680;BME280;63211;48.548;2.704;2022-10-29T12:38:38;100869.91;;;20.69;65.54
74680;BME280;63211;48.548;2.704;2022-10-29T12:41:10;100856.47;;;20.68;65.37
74680;BME280;63211;48.548;2.704;2022-10-29T12:43:39;100866.94;;;20.71;65.34
74680;BME280;63211;48.548;2.704;2022-10-29T12:46:18;100868.13;;;20.75;65.14
74680;BME280;63211;48.548;2.704;2022-10-29T12:48:52;100861.34;;;20.77;65.42
74680;BME280;63211;48.548;2.704;2022-10-29T12:51:27;100862.91;;;20.73;64.99
74680;BME280;63211;48.548;2.704;2022-10-29T12:54:13;100868.13;;;20.75;65.34
74680;BME280;63211;48.548;2.704;2022-10-29T12:56:41;100857.19;;;20.75;65.33
74680;BME280;63211;48.548;2.704;2022-10-29T12:59:33;100851.47;;;20.76;64.92
74680;BME280;63211;48.548;2.704;2022-10-29T13:02:25;100844.94;;;20.77;65.18
74680;BME280;63211;48.548;2.704;2022-10-29T13:05:36;100844.34;;;20.75;65.05
74680;BME280;63211;48.548;2.704;2022-10-29T13:08:35;100842.44;;;20.76;65.59
74680;BME280;63211;48.548;2.704;2022-10-29T13:11:17;100837.56;;;20.78;65.14